Time;durP1;ratioP1;P1;durP2;ratioP2;P2;SDS_P1;SDS_P2;PMS_P1;PMS_P2;Temp;Humidity;BMP_temperature;BMP_pressure;BME280_temperature;BME280_humidity;BME280_pressure;Samples;Min_cycle;Max_cycle;Signal;HPM_P1;HPM_P2
2023/07/14 00:00:47;;;;;;;1.55;1.33;;;;;;;;;;4994482;28;20085;-75
2023/07/14 00:03:17;;;;;;;2.03;1.33;;;;;;;;;;4995845;28;20026;-72
2023/07/14 00:05:43;;;;;;;2.28;1.35;;;;;;;;;;4994455;28;20438;-74
2023/07/14 00:08:16;;;;;;;2.42;1.05;;;;;;;;;;4995497;28;20024;-74
2023/07/14 00:10:42;;;;;;;2.50;1.25;;;;;;;;;;4994677;28;20026;-75
2023/07/14 00:13:07;;;;;;;1.98;1.55;;;;;;;;;;4996696;28;20082;-72
2023/07/14 00:15:35;;;;;;;2.00;1.38;;;;;;;;;;4997827;28;20105;-74
2023/07/14 00:18:23;;;;;;;1.42;1.33;;;;;;;;;;4997439;28;20022;-74
2023/07/14 00:20:48;;;;;;;1.20;1.10;;;;;;;;;;4997116;28;20092;-72
2023/07/14 00:23:15;;;;;;;1.50;1.40;;;;;;;;;;4999031;28;20475;-73
2023/07/14 00:25:41;;;;;;;2.58;1.20;;;;;;;;;;4999067;28;20022;-71
2023/07/14 00:28:18;;;;;;;1.88;1.40;;;;;;;;;;4998327;28;20037;-73
2023/07/14 00:30:45;;;;;;;1.55;1.40;;;;;;;;;;4993570;28;20032;-73
2023/07/14 00:33:16;;;;;;;1.63;1.52;;;;;;;;;;4997983;28;20036;-74
2023/07/14 00:35:42;;;;;;;3.60;1.70;;;;;;;;;;4996296;28;20030;-74
2023/07/14 00:38:08;;;;;;;3.95;2.20;;;;;;;;;;4998523;28;20447;-72
2023/07/14 00:40:43;;;;;;;3.83;1.90;;;;;;;;;;4996330;28;20040;-73
2023/07/14 00:43:18;;;;;;;1.83;1.70;;;;;;;;;;4997837;28;20018;-73
2023/07/14 00:45:44;;;;;;;1.85;1.65;;;;;;;;;;4999129;28;20030;-73
2023/07/14 00:48:14;;;;;;;1.70;1.48;;;;;;;;;;5000584;28;20669;-73
2023/07/14 00:50:42;;;;;;;2.05;1.58;;;;;;;;;;4992725;28;20053;-73
2023/07/14 00:53:35;;;;;;;2.60;2.10;;;;;;;;;;4996704;28;20030;-74
2023/07/14 00:56:23;;;;;;;3.53;1.77;;;;;;;;;;4998711;28;20046;-72
2023/07/14 00:58:51;;;;;;;3.85;1.50;;;;;;;;;;4995825;28;20553;-75
2023/07/14 01:02:11;;;;;;;4.28;2.05;;;;;;;;;;4994275;28;20041;-74
2023/07/14 01:04:38;;;;;;;1.65;1.55;;;;;;;;;;4987809;28;20026;-74
2023/07/14 01:07:04;;;;;;;1.90;1.52;;;;;;;;;;4995045;28;20038;-73
2023/07/14 01:09:31;;;;;;;2.78;1.65;;;;;;;;;;4993544;28;20032;-75
2023/07/14 01:11:58;;;;;;;2.70;1.30;;;;;;;;;;4995576;28;20156;-75
2023/07/14 01:14:33;;;;;;;1.33;1.20;;;;;;;;;;5002146;28;20026;-75
2023/07/14 01:17:01;;;;;;;1.88;1.77;;;;;;;;;;4995006;28;20044;-74
2023/07/14 01:19:31;;;;;;;1.95;1.75;;;;;;;;;;4993124;28;20038;-76
2023/07/14 01:22:35;;;;;;;3.63;2.03;;;;;;;;;;5005864;28;20482;-73
2023/07/14 01:25:12;;;;;;;2.67;2.13;;;;;;;;;;4990648;28;20034;-75
2023/07/14 01:27:37;;;;;;;1.98;1.67;;;;;;;;;;5002713;28;20545;-75
2023/07/14 01:30:03;;;;;;;4.30;1.90;;;;;;;;;;4996281;28;20022;-75
2023/07/14 01:32:41;;;;;;;1.80;1.48;;;;;;;;;;4995797;28;20017;-75
2023/07/14 01:35:07;;;;;;;1.75;1.40;;;;;;;;;;4996460;28;20046;-75
2023/07/14 01:37:39;;;;;;;1.50;1.40;;;;;;;;;;4997223;28;20022;-75
2023/07/14 01:40:13;;;;;;;2.28;1.90;;;;;;;;;;5000676;28;20518;-74
2023/07/14 01:42:46;;;;;;;2.08;1.42;;;;;;;;;;4997692;28;20030;-74
2023/07/14 01:45:14;;;;;;;2.22;1.60;;;;;;;;;;4991394;28;20490;-74
2023/07/14 01:47:42;;;;;;;1.05;1.02;;;;;;;;;;5006593;28;20098;-73
2023/07/14 01:50:16;;;;;;;1.42;1.30;;;;;;;;;;5010945;28;20064;-73
2023/07/14 01:52:42;;;;;;;1.92;1.80;;;;;;;;;;5010877;28;20017;-74
2023/07/14 01:55:12;;;;;;;2.13;1.65;;;;;;;;;;5011743;28;20484;-72
2023/07/14 01:57:38;;;;;;;2.50;1.38;;;;;;;;;;5002617;28;20032;-75
2023/07/14 02:00:09;;;;;;;1.92;1.50;;;;;;;;;;4995684;28;20022;-74
2023/07/14 02:02:36;;;;;;;1.40;1.30;;;;;;;;;;4995166;28;20030;-74
2023/07/14 02:05:16;;;;;;;2.03;1.65;;;;;;;;;;4997522;28;20014;-75
2023/07/14 02:07:42;;;;;;;1.70;1.42;;;;;;;;;;4995736;28;20348;-75
2023/07/14 02:10:19;;;;;;;2.08;1.33;;;;;;;;;;4998911;28;20093;-74
2023/07/14 02:12:46;;;;;;;3.38;1.90;;;;;;;;;;5001972;28;20034;-74
2023/07/14 02:15:26;;;;;;;2.17;1.90;;;;;;;;;;5002070;28;20026;-74
2023/07/14 02:17:53;;;;;;;1.35;1.25;;;;;;;;;;5015018;28;20038;-74
2023/07/14 02:20:38;;;;;;;1.88;1.70;;;;;;;;;;4995169;28;20022;-74
2023/07/14 02:23:06;;;;;;;4.18;1.77;;;;;;;;;;4996415;28;20371;-74
2023/07/14 02:25:38;;;;;;;1.10;1.00;;;;;;;;;;4999405;28;20072;-75
2023/07/14 02:28:04;;;;;;;4.55;1.65;;;;;;;;;;4997972;28;20025;-74
2023/07/14 02:30:33;;;;;;;1.95;1.67;;;;;;;;;;4994115;28;20026;-74
2023/07/14 02:33:06;;;;;;;1.70;1.45;;;;;;;;;;4998205;28;20105;-73
2023/07/14 02:35:50;;;;;;;2.05;1.50;;;;;;;;;;5018339;28;20026;-72
2023/07/14 02:38:17;;;;;;;1.85;1.67;;;;;;;;;;4996579;28;20034;-72
2023/07/14 02:40:51;;;;;;;1.80;1.30;;;;;;;;;;4995159;28;20021;-74
2023/07/14 02:43:18;;;;;;;2.05;1.88;;;;;;;;;;5002415;28;20219;-73
2023/07/14 02:45:52;;;;;;;2.08;1.90;;;;;;;;;;4997458;28;20394;-71
2023/07/14 02:48:28;;;;;;;1.67;1.30;;;;;;;;;;4996023;28;20113;-74
2023/07/14 02:50:53;;;;;;;2.72;1.40;;;;;;;;;;4994344;28;20018;-75
2023/07/14 02:53:19;;;;;;;1.75;1.50;;;;;;;;;;4998664;28;20030;-73
2023/07/14 02:55:44;;;;;;;2.08;1.90;;;;;;;;;;5007889;28;20520;-75
2023/07/14 02:58:09;;;;;;;2.40;1.52;;;;;;;;;;5002142;28;20029;-73
2023/07/14 03:00:35;;;;;;;1.98;1.60;;;;;;;;;;4996500;28;20564;-74
2023/07/14 03:03:01;;;;;;;1.50;1.30;;;;;;;;;;4994078;28;20026;-75
2023/07/14 03:05:26;;;;;;;1.50;1.38;;;;;;;;;;4996936;28;20033;-73
2023/07/14 03:07:51;;;;;;;1.48;1.35;;;;;;;;;;4992433;28;20038;-72
2023/07/14 03:10:17;;;;;;;2.30;1.50;;;;;;;;;;4995775;28;20488;-75
2023/07/14 03:12:42;;;;;;;1.27;1.17;;;;;;;;;;4996390;28;20014;-74
2023/07/14 03:15:08;;;;;;;1.95;1.30;;;;;;;;;;4995043;28;20028;-73
2023/07/14 03:17:33;;;;;;;1.83;1.70;;;;;;;;;;5003847;28;20119;-74
2023/07/14 03:19:59;;;;;;;2.83;1.70;;;;;;;;;;5002358;28;20036;-73
2023/07/14 03:22:26;;;;;;;1.70;1.48;;;;;;;;;;4993988;28;20093;-73
2023/07/14 03:24:51;;;;;;;2.33;1.42;;;;;;;;;;4997347;28;20022;-71
2023/07/14 03:27:17;;;;;;;3.10;1.60;;;;;;;;;;5002997;28;20029;-72
2023/07/14 03:29:42;;;;;;;5.60;2.22;;;;;;;;;;4992935;28;20025;-72
2023/07/14 03:32:12;;;;;;;1.95;1.73;;;;;;;;;;4997238;28;20025;-71
2023/07/14 03:34:38;;;;;;;4.67;2.00;;;;;;;;;;4995387;28;20022;-71
2023/07/14 03:37:03;;;;;;;1.67;1.50;;;;;;;;;;4995385;28;20609;-74
2023/07/14 03:39:30;;;;;;;1.90;1.70;;;;;;;;;;5001882;28;20034;-73
2023/07/14 03:41:57;;;;;;;1.48;1.38;;;;;;;;;;5002616;28;20026;-72
2023/07/14 03:44:23;;;;;;;2.90;1.80;;;;;;;;;;5010349;28;20034;-74
2023/07/14 03:46:49;;;;;;;2.38;1.70;;;;;;;;;;4995268;28;20083;-74
2023/07/14 03:49:15;;;;;;;1.98;1.70;;;;;;;;;;5000497;28;20097;-72
2023/07/14 03:51:41;;;;;;;2.72;1.73;;;;;;;;;;4997488;28;20026;-71
2023/07/14 03:54:07;;;;;;;2.38;1.73;;;;;;;;;;4997629;28;20125;-74
2023/07/14 03:56:32;;;;;;;2.13;1.90;;;;;;;;;;4995225;28;20599;-73
2023/07/14 03:58:58;;;;;;;2.10;2.00;;;;;;;;;;5000875;28;20113;-71
2023/07/14 04:01:25;;;;;;;2.58;2.08;;;;;;;;;;5009946;28;20029;-74
2023/07/14 04:03:51;;;;;;;2.50;2.03;;;;;;;;;;5003631;28;20038;-72
2023/07/14 04:06:16;;;;;;;4.15;2.20;;;;;;;;;;5003084;28;20040;-73
2023/07/14 04:08:43;;;;;;;2.20;2.00;;;;;;;;;;5007000;28;20030;-73
2023/07/14 04:11:09;;;;;;;4.07;2.42;;;;;;;;;;5008937;28;20682;-74
2023/07/14 04:13:35;;;;;;;2.63;1.70;;;;;;;;;;5001154;28;20073;-73
2023/07/14 04:16:03;;;;;;;2.13;1.92;;;;;;;;;;4996633;28;20029;-75
2023/07/14 04:18:30;;;;;;;2.10;1.90;;;;;;;;;;4995934;28;20027;-74
2023/07/14 04:21:02;;;;;;;4.10;2.20;;;;;;;;;;4997767;28;20080;-72
2023/07/14 04:23:28;;;;;;;3.80;2.17;;;;;;;;;;5001556;28;20060;-71
2023/07/14 04:25:54;;;;;;;4.97;2.17;;;;;;;;;;5000388;28;20239;-74
2023/07/14 04:28:19;;;;;;;3.38;2.67;;;;;;;;;;4995593;28;20041;-75
2023/07/14 04:30:53;;;;;;;3.42;2.50;;;;;;;;;;4996971;28;20041;-73
2023/07/14 04:33:18;;;;;;;2.03;1.83;;;;;;;;;;4997068;28;20026;-74
2023/07/14 04:35:44;;;;;;;3.42;2.50;;;;;;;;;;4990573;28;20125;-73
2023/07/14 04:38:09;;;;;;;3.80;2.63;;;;;;;;;;4993455;28;20641;-72
2023/07/14 04:40:39;;;;;;;3.45;2.50;;;;;;;;;;4989881;28;20069;-73
2023/07/14 04:43:04;;;;;;;4.00;2.60;;;;;;;;;;4995490;28;20030;-75
2023/07/14 04:45:30;;;;;;;2.10;1.98;;;;;;;;;;4998597;28;20267;-75
2023/07/14 04:47:56;;;;;;;4.07;2.75;;;;;;;;;;4991520;28;20026;-72
2023/07/14 04:50:22;;;;;;;4.13;2.38;;;;;;;;;;5002793;28;20081;-74
2023/07/14 04:52:47;;;;;;;3.53;2.05;;;;;;;;;;5000076;28;20417;-75
2023/07/14 04:55:13;;;;;;;2.67;2.25;;;;;;;;;;4994507;28;20034;-71
2023/07/14 04:57:38;;;;;;;3.70;2.30;;;;;;;;;;4992363;28;20026;-74
2023/07/14 05:00:05;;;;;;;3.08;2.17;;;;;;;;;;4992652;28;20534;-72
2023/07/14 05:02:30;;;;;;;4.55;2.38;;;;;;;;;;4996133;28;20494;-76
2023/07/14 05:05:11;;;;;;;5.00;2.40;;;;;;;;;;4996018;28;20096;-74
2023/07/14 05:07:37;;;;;;;4.03;2.88;;;;;;;;;;4994638;28;20026;-76
2023/07/14 05:10:02;;;;;;;3.30;2.20;;;;;;;;;;4998265;28;20445;-75
2023/07/14 05:12:29;;;;;;;5.05;2.40;;;;;;;;;;4998524;28;20024;-76
2023/07/14 05:14:54;;;;;;;4.43;2.28;;;;;;;;;;5002261;28;20096;-73
2023/07/14 05:17:20;;;;;;;3.45;2.20;;;;;;;;;;4993853;28;20030;-72
2023/07/14 05:19:45;;;;;;;3.85;2.20;;;;;;;;;;4992844;28;20710;-74
2023/07/14 05:22:10;;;;;;;3.60;2.30;;;;;;;;;;4996513;28;20169;-76
2023/07/14 05:24:36;;;;;;;4.55;2.38;;;;;;;;;;4991471;28;20038;-76
2023/07/14 05:27:01;;;;;;;3.55;2.38;;;;;;;;;;4993945;28;20414;-74
2023/07/14 05:29:26;;;;;;;2.75;2.53;;;;;;;;;;4991713;28;20104;-75
2023/07/14 05:31:52;;;;;;;2.47;2.25;;;;;;;;;;4995903;28;20022;-76
2023/07/14 05:34:17;;;;;;;2.38;2.17;;;;;;;;;;4999967;28;20581;-76
2023/07/14 05:36:42;;;;;;;3.67;2.50;;;;;;;;;;5003042;28;20121;-75
2023/07/14 05:39:09;;;;;;;3.35;2.83;;;;;;;;;;5006257;28;20026;-76
2023/07/14 05:41:34;;;;;;;3.30;1.92;;;;;;;;;;5011573;28;20521;-76
2023/07/14 05:44:00;;;;;;;2.55;2.28;;;;;;;;;;5005925;28;20030;-76
2023/07/14 05:46:25;;;;;;;2.75;2.10;;;;;;;;;;4998624;28;20038;-73
2023/07/14 05:48:50;;;;;;;3.15;2.03;;;;;;;;;;4997964;28;20101;-73
2023/07/14 05:51:16;;;;;;;2.60;2.20;;;;;;;;;;4999061;28;20034;-76
2023/07/14 05:53:42;;;;;;;5.03;2.30;;;;;;;;;;4995820;28;20020;-76
2023/07/14 05:56:07;;;;;;;2.58;2.38;;;;;;;;;;4998475;28;20470;-75
2023/07/14 05:58:33;;;;;;;2.35;2.13;;;;;;;;;;4999053;28;20677;-75
2023/07/14 06:00:58;;;;;;;3.10;2.60;;;;;;;;;;4997640;28;20039;-75
2023/07/14 06:03:23;;;;;;;3.35;2.38;;;;;;;;;;5004659;28;20024;-75
2023/07/14 06:05:49;;;;;;;6.40;4.10;;;;;;;;;;5007657;28;20022;-76
2023/07/14 06:08:15;;;;;;;5.60;2.83;;;;;;;;;;5004673;28;20025;-74
2023/07/14 06:10:41;;;;;;;3.95;2.53;;;;;;;;;;5006257;28;20514;-76
2023/07/14 06:13:06;;;;;;;6.07;3.03;;;;;;;;;;5003468;28;20044;-77
2023/07/14 06:15:31;;;;;;;5.45;2.90;;;;;;;;;;5017259;28;20022;-74
2023/07/14 06:17:57;;;;;;;3.65;2.42;;;;;;;;;;5004736;28;20081;-76
2023/07/14 06:20:23;;;;;;;3.17;2.55;;;;;;;;;;5007212;28;20422;-76
2023/07/14 06:22:49;;;;;;;5.97;3.10;;;;;;;;;;5004412;28;20449;-76
2023/07/14 06:25:15;;;;;;;6.25;2.80;;;;;;;;;;4999172;28;20109;-75
2023/07/14 06:27:40;;;;;;;2.28;1.60;;;;;;;;;;4998420;28;20630;-75
2023/07/14 06:30:07;;;;;;;3.92;2.78;;;;;;;;;;4997759;28;20661;-76
2023/07/14 06:32:32;;;;;;;2.70;2.42;;;;;;;;;;4995443;28;20096;-76
2023/07/14 06:34:58;;;;;;;2.50;2.30;;;;;;;;;;4999102;28;20494;-77
2023/07/14 06:37:26;;;;;;;3.88;2.50;;;;;;;;;;4991395;28;20017;-75
2023/07/14 06:39:53;;;;;;;4.53;2.72;;;;;;;;;;4986269;28;20103;-77
2023/07/14 06:42:18;;;;;;;2.50;2.30;;;;;;;;;;4990244;28;20022;-76
2023/07/14 06:44:44;;;;;;;4.45;2.30;;;;;;;;;;4989739;28;20073;-74
2023/07/14 06:47:09;;;;;;;4.93;2.80;;;;;;;;;;4996876;28;20128;-76
2023/07/14 06:49:34;;;;;;;2.97;2.33;;;;;;;;;;4992717;28;20554;-75
2023/07/14 06:52:00;;;;;;;3.53;2.83;;;;;;;;;;4984989;28;20028;-75
2023/07/14 06:54:25;;;;;;;5.35;2.88;;;;;;;;;;4990500;28;20021;-76
2023/07/14 06:56:51;;;;;;;4.35;2.60;;;;;;;;;;4993528;28;20033;-75
2023/07/14 06:59:17;;;;;;;4.20;2.30;;;;;;;;;;4992077;28;20029;-74
2023/07/14 07:01:44;;;;;;;5.22;2.58;;;;;;;;;;4992598;28;20418;-77
2023/07/14 07:04:09;;;;;;;3.25;2.53;;;;;;;;;;4990991;28;20467;-75
2023/07/14 07:06:34;;;;;;;3.58;2.50;;;;;;;;;;4995263;28;20069;-76
2023/07/14 07:09:00;;;;;;;4.60;2.67;;;;;;;;;;4993145;28;20459;-76
2023/07/14 07:11:25;;;;;;;3.60;2.50;;;;;;;;;;4993683;28;20030;-75
2023/07/14 07:13:50;;;;;;;6.03;3.05;;;;;;;;;;4996930;28;20022;-77
2023/07/14 07:16:16;;;;;;;3.10;2.50;;;;;;;;;;4996163;28;20041;-76
2023/07/14 07:18:41;;;;;;;4.07;2.30;;;;;;;;;;4998102;28;20490;-76
2023/07/14 07:21:08;;;;;;;4.40;3.00;;;;;;;;;;4997229;28;20019;-75
2023/07/14 07:23:34;;;;;;;3.05;2.13;;;;;;;;;;4999540;28;20046;-74
2023/07/14 07:25:59;;;;;;;4.20;2.08;;;;;;;;;;4994493;28;20059;-75
2023/07/14 07:28:24;;;;;;;3.63;1.80;;;;;;;;;;4997547;28;20026;-75
2023/07/14 07:30:50;;;;;;;6.82;2.13;;;;;;;;;;5001296;28;20120;-76
2023/07/14 07:33:16;;;;;;;2.10;1.63;;;;;;;;;;5001945;28;20026;-76
2023/07/14 07:35:42;;;;;;;2.58;2.00;;;;;;;;;;4996267;28;20030;-77
2023/07/14 07:38:12;;;;;;;4.25;1.95;;;;;;;;;;4999344;28;20093;-76
2023/07/14 07:40:38;;;;;;;1.77;1.35;;;;;;;;;;5003204;28;20504;-77
2023/07/14 07:43:03;;;;;;;3.60;1.70;;;;;;;;;;5001284;28;20390;-76
2023/07/14 07:45:29;;;;;;;3.25;1.73;;;;;;;;;;4998503;28;20037;-75
2023/07/14 07:47:55;;;;;;;2.78;1.70;;;;;;;;;;5005237;28;20041;-75
2023/07/14 07:50:20;;;;;;;2.75;1.85;;;;;;;;;;5002081;28;20049;-76
2023/07/14 07:52:46;;;;;;;4.60;1.75;;;;;;;;;;4999819;28;20745;-77
2023/07/14 07:55:11;;;;;;;1.70;1.50;;;;;;;;;;5008753;28;20018;-77
2023/07/14 07:57:37;;;;;;;2.78;1.75;;;;;;;;;;5010473;28;20034;-76
2023/07/14 08:00:06;;;;;;;2.17;1.70;;;;;;;;;;5001015;28;20058;-76
2023/07/14 08:02:32;;;;;;;4.50;1.80;;;;;;;;;;5002928;28;20038;-76
2023/07/14 08:04:57;;;;;;;2.38;1.70;;;;;;;;;;5002473;28;20033;-77
2023/07/14 08:07:22;;;;;;;2.65;1.52;;;;;;;;;;5003121;28;20060;-75
2023/07/14 08:09:49;;;;;;;2.58;1.45;;;;;;;;;;5006682;28;20029;-76
2023/07/14 08:12:15;;;;;;;2.83;1.70;;;;;;;;;;5008429;28;20022;-77
2023/07/14 08:14:54;;;;;;;3.40;1.60;;;;;;;;;;5003261;28;21233;-75
2023/07/14 08:17:24;;;;;;;3.00;1.60;;;;;;;;;;5000779;28;20037;-75
2023/07/14 08:19:50;;;;;;;2.55;1.70;;;;;;;;;;5001415;28;20272;-77
2023/07/14 08:22:16;;;;;;;3.80;1.75;;;;;;;;;;4998875;28;20041;-76
2023/07/14 08:24:41;;;;;;;2.13;1.70;;;;;;;;;;5002994;28;20022;-77
2023/07/14 08:27:07;;;;;;;4.30;1.45;;;;;;;;;;5005939;28;20561;-77
2023/07/14 08:29:33;;;;;;;2.65;1.50;;;;;;;;;;5004238;28;20049;-76
2023/07/14 08:31:58;;;;;;;2.35;1.55;;;;;;;;;;5008249;28;20044;-77
2023/07/14 08:34:26;;;;;;;2.75;1.75;;;;;;;;;;5006168;28;20080;-78
2023/07/14 08:36:52;;;;;;;3.00;1.50;;;;;;;;;;5011857;28;20094;-77
2023/07/14 08:39:17;;;;;;;2.70;1.80;;;;;;;;;;4996420;28;20117;-77
2023/07/14 08:41:46;;;;;;;2.03;1.60;;;;;;;;;;4999347;28;20060;-77
2023/07/14 08:44:28;;;;;;;3.60;1.52;;;;;;;;;;5000279;28;20030;-77
2023/07/14 08:47:03;;;;;;;2.85;1.73;;;;;;;;;;5004325;28;20124;-76
2023/07/14 08:49:46;;;;;;;3.33;1.70;;;;;;;;;;5006809;28;20029;-76
2023/07/14 08:52:19;;;;;;;2.97;1.80;;;;;;;;;;4997950;28;20106;-77
2023/07/14 08:54:48;;;;;;;3.60;2.00;;;;;;;;;;4996177;28;20034;-77
2023/07/14 08:57:17;;;;;;;2.67;1.75;;;;;;;;;;5004764;28;20082;-75
2023/07/14 08:59:45;;;;;;;2.78;1.80;;;;;;;;;;4999282;28;20033;-76
2023/07/14 09:02:19;;;;;;;3.40;1.90;;;;;;;;;;5001564;28;20429;-76
2023/07/14 09:04:56;;;;;;;2.40;1.95;;;;;;;;;;5000251;28;20033;-75
2023/07/14 09:07:21;;;;;;;4.03;1.40;;;;;;;;;;4997082;28;20022;-76
2023/07/14 09:09:47;;;;;;;2.25;1.60;;;;;;;;;;5005171;28;20035;-76
2023/07/14 09:12:29;;;;;;;3.70;1.52;;;;;;;;;;4999397;28;20610;-75
2023/07/14 09:15:27;;;;;;;3.08;1.55;;;;;;;;;;4994571;28;20026;-76
2023/07/14 09:18:14;;;;;;;2.13;1.60;;;;;;;;;;4969562;28;20053;-76
2023/07/14 09:21:13;;;;;;;1.98;1.30;;;;;;;;;;4999188;28;20617;-75
2023/07/14 09:23:47;;;;;;;2.05;1.38;;;;;;;;;;5000116;28;20037;-76
2023/07/14 09:26:24;;;;;;;2.65;1.42;;;;;;;;;;5000353;28;20048;-77
2023/07/14 09:28:51;;;;;;;2.90;1.73;;;;;;;;;;4997526;28;20037;-77
2023/07/14 09:31:54;;;;;;;2.40;1.65;;;;;;;;;;5005710;28;20417;-77
2023/07/14 09:34:39;;;;;;;1.52;1.17;;;;;;;;;;4998573;28;20099;-77
2023/07/14 09:37:33;;;;;;;3.20;1.70;;;;;;;;;;4996194;28;20072;-77
2023/07/14 09:40:17;;;;;;;2.50;1.50;;;;;;;;;;4988969;28;20121;-76
2023/07/14 09:42:48;;;;;;;2.42;1.73;;;;;;;;;;4999658;28;20050;-75
2023/07/14 09:45:23;;;;;;;1.88;1.40;;;;;;;;;;5004663;28;20026;-76
2023/07/14 09:47:59;;;;;;;1.50;1.40;;;;;;;;;;4999724;28;20034;-77
2023/07/14 09:50:25;;;;;;;4.10;1.88;;;;;;;;;;4995462;28;20026;-76
2023/07/14 09:53:05;;;;;;;4.35;1.67;;;;;;;;;;4998199;28;20104;-76
2023/07/14 09:55:52;;;;;;;2.10;1.50;;;;;;;;;;4998325;28;20048;-76
2023/07/14 09:58:22;;;;;;;2.47;1.73;;;;;;;;;;5000930;28;20037;-76
2023/07/14 10:00:50;;;;;;;3.38;1.83;;;;;;;;;;5002035;28;20049;-77
2023/07/14 10:03:16;;;;;;;1.70;1.60;;;;;;;;;;5010147;28;20141;-76
2023/07/14 10:06:05;;;;;;;4.70;1.80;;;;;;;;;;5006559;28;20025;-76
2023/07/14 10:08:34;;;;;;;1.20;1.08;;;;;;;;;;5001391;28;20107;-75
2023/07/14 10:11:22;;;;;;;2.17;1.77;;;;;;;;;;5001201;28;20018;-77
2023/07/14 10:13:57;;;;;;;2.05;1.25;;;;;;;;;;5001215;28;20073;-76
2023/07/14 10:16:25;;;;;;;2.55;1.50;;;;;;;;;;5002187;28;20033;-77
2023/07/14 10:19:11;;;;;;;4.53;1.98;;;;;;;;;;5002695;28;20037;-76
2023/07/14 10:21:38;;;;;;;3.47;1.67;;;;;;;;;;5000300;28;20029;-76
2023/07/14 10:24:16;;;;;;;2.65;1.73;;;;;;;;;;5002998;28;20026;-76
2023/07/14 10:26:50;;;;;;;4.25;1.50;;;;;;;;;;5002353;28;20029;-77
2023/07/14 10:29:17;;;;;;;2.38;1.55;;;;;;;;;;5001614;28;20032;-77
2023/07/14 10:31:50;;;;;;;4.55;2.05;;;;;;;;;;5000648;28;20033;-76
2023/07/14 10:34:27;;;;;;;2.63;1.80;;;;;;;;;;5003499;28;20104;-75
2023/07/14 10:36:57;;;;;;;3.47;1.70;;;;;;;;;;5003687;28;20030;-76
2023/07/14 10:39:32;;;;;;;2.20;1.70;;;;;;;;;;5005040;28;20029;-76
2023/07/14 10:41:59;;;;;;;1.23;1.13;;;;;;;;;;5001518;28;20050;-76
2023/07/14 10:44:30;;;;;;;2.30;1.25;;;;;;;;;;5004044;28;20022;-76
2023/07/14 10:47:02;;;;;;;1.92;1.25;;;;;;;;;;5001276;28;20079;-76
2023/07/14 10:49:35;;;;;;;2.97;1.88;;;;;;;;;;4999486;28;20032;-76
2023/07/14 10:52:11;;;;;;;4.07;1.88;;;;;;;;;;4998622;28;20069;-76
2023/07/14 10:55:00;;;;;;;3.03;1.90;;;;;;;;;;5004925;28;20346;-75
2023/07/14 10:57:45;;;;;;;3.30;1.35;;;;;;;;;;5000615;28;20041;-76
2023/07/14 11:00:26;;;;;;;3.00;2.08;;;;;;;;;;5000227;28;20097;-75
2023/07/14 11:03:03;;;;;;;2.70;1.33;;;;;;;;;;5002911;28;20018;-77
2023/07/14 11:05:29;;;;;;;3.58;2.00;;;;;;;;;;5003447;28;20419;-76
2023/07/14 11:07:55;;;;;;;2.45;1.70;;;;;;;;;;5001196;28;20048;-76
2023/07/14 11:10:41;;;;;;;2.05;1.40;;;;;;;;;;5001712;28;20054;-75
2023/07/14 11:13:21;;;;;;;4.03;2.08;;;;;;;;;;4997315;28;20374;-77
2023/07/14 11:15:52;;;;;;;2.72;1.80;;;;;;;;;;4990794;28;20038;-77
2023/07/14 11:18:45;;;;;;;2.00;1.75;;;;;;;;;;4991418;28;20066;-76
2023/07/14 11:21:42;;;;;;;2.67;1.88;;;;;;;;;;4990105;28;20494;-77
2023/07/14 11:24:27;;;;;;;3.10;1.70;;;;;;;;;;4988288;28;20803;-77
2023/07/14 11:27:04;;;;;;;4.15;2.00;;;;;;;;;;4992896;28;20096;-77
2023/07/14 11:29:41;;;;;;;2.60;2.20;;;;;;;;;;4990024;28;20141;-76
2023/07/14 11:32:17;;;;;;;5.07;2.03;;;;;;;;;;4996886;28;20038;-77
2023/07/14 11:35:05;;;;;;;2.88;1.80;;;;;;;;;;4993596;28;20359;-77
2023/07/14 11:37:50;;;;;;;2.15;1.75;;;;;;;;;;4991475;28;20037;-76
2023/07/14 11:40:21;;;;;;;2.10;1.90;;;;;;;;;;4988015;28;20629;-77
2023/07/14 11:43:08;;;;;;;2.33;2.00;;;;;;;;;;4997601;28;20640;-77
2023/07/14 11:45:34;;;;;;;1.98;1.77;;;;;;;;;;4982069;28;20103;-77
2023/07/14 11:48:00;;;;;;;3.88;2.00;;;;;;;;;;5002346;28;20021;-76
2023/07/14 11:50:44;;;;;;;2.20;2.00;;;;;;;;;;4997292;28;20018;-76
2023/07/14 11:53:19;;;;;;;3.38;1.92;;;;;;;;;;4990855;28;20116;-76
2023/07/14 11:55:51;;;;;;;2.17;1.88;;;;;;;;;;4988009;28;20060;-76
2023/07/14 11:58:29;;;;;;;2.65;1.90;;;;;;;;;;4987239;28;20030;-78
2023/07/14 12:01:14;;;;;;;2.38;1.70;;;;;;;;;;4984190;28;20026;-78
2023/07/14 12:03:46;;;;;;;2.05;1.70;;;;;;;;;;4996480;28;20545;-77
2023/07/14 12:06:23;;;;;;;2.60;1.45;;;;;;;;;;5002975;28;20044;-77
2023/07/14 12:09:04;;;;;;;2.22;1.80;;;;;;;;;;5008036;28;20120;-77
2023/07/14 12:11:46;;;;;;;2.28;1.70;;;;;;;;;;5002480;28;20085;-78
2023/07/14 12:14:34;;;;;;;4.00;1.80;;;;;;;;;;4993678;28;20034;-77
2023/07/14 12:17:01;;;;;;;2.55;1.80;;;;;;;;;;4999596;28;20030;-77
2023/07/14 12:19:50;;;;;;;4.03;2.03;;;;;;;;;;4998345;28;20041;-77
2023/07/14 12:22:37;;;;;;;2.03;1.60;;;;;;;;;;4996451;28;20022;-78
2023/07/14 12:25:24;;;;;;;3.70;1.80;;;;;;;;;;4998340;28;20105;-78
2023/07/14 12:27:54;;;;;;;2.33;1.90;;;;;;;;;;4999120;28;20030;-77
2023/07/14 12:30:29;;;;;;;1.65;1.52;;;;;;;;;;4995682;28;20568;-77
2023/07/14 12:33:00;;;;;;;1.98;1.77;;;;;;;;;;4992305;28;20030;-77
2023/07/14 12:35:27;;;;;;;2.35;1.80;;;;;;;;;;4994238;28;20030;-77
2023/07/14 12:37:53;;;;;;;2.40;1.77;;;;;;;;;;4994627;28;20032;-78
2023/07/14 12:40:22;;;;;;;1.70;1.60;;;;;;;;;;4991406;28;20042;-77
2023/07/14 12:42:50;;;;;;;3.33;1.90;;;;;;;;;;4995287;28;20030;-77
2023/07/14 12:45:18;;;;;;;1.73;1.50;;;;;;;;;;4995086;28;20514;-78
2023/07/14 12:47:49;;;;;;;3.42;1.77;;;;;;;;;;4995647;28;20494;-77
2023/07/14 12:50:17;;;;;;;2.42;1.65;;;;;;;;;;4998698;28;20033;-78
2023/07/14 12:52:45;;;;;;;2.10;1.80;;;;;;;;;;5003047;28;20026;-77
2023/07/14 12:55:14;;;;;;;2.40;1.90;;;;;;;;;;4993742;28;20045;-78
2023/07/14 12:57:39;;;;;;;2.55;1.65;;;;;;;;;;4994369;28;20059;-78
2023/07/14 13:00:21;;;;;;;1.90;1.20;;;;;;;;;;4994127;28;20787;-77
2023/07/14 13:02:48;;;;;;;2.22;1.80;;;;;;;;;;4998364;28;20097;-77
2023/07/14 13:05:15;;;;;;;2.47;1.40;;;;;;;;;;4993896;28;20022;-78
2023/07/14 13:07:54;;;;;;;2.67;1.85;;;;;;;;;;5003074;28;20037;-77
2023/07/14 13:10:25;;;;;;;2.08;1.92;;;;;;;;;;4993237;28;20030;-77
2023/07/14 13:12:53;;;;;;;2.47;1.90;;;;;;;;;;4995467;28;20790;-78
2023/07/14 13:15:20;;;;;;;3.25;2.20;;;;;;;;;;4993582;28;20033;-78
2023/07/14 13:17:49;;;;;;;2.47;1.77;;;;;;;;;;4996703;28;20045;-78
2023/07/14 13:20:27;;;;;;;2.15;1.60;;;;;;;;;;5001869;28;20021;-78
2023/07/14 13:23:11;;;;;;;3.92;1.90;;;;;;;;;;5001833;28;20512;-77
2023/07/14 13:25:44;;;;;;;3.20;2.40;;;;;;;;;;4995588;28;20033;-78
2023/07/14 13:28:32;;;;;;;2.90;2.00;;;;;;;;;;4993012;28;20026;-78
2023/07/14 13:31:05;;;;;;;2.75;2.03;;;;;;;;;;4996497;28;20026;-78
2023/07/14 13:33:31;;;;;;;3.80;2.05;;;;;;;;;;4994821;28;20030;-78
2023/07/14 13:36:07;;;;;;;4.03;2.15;;;;;;;;;;4992421;28;20052;-78
2023/07/14 13:38:33;;;;;;;3.40;1.83;;;;;;;;;;4994546;28;20018;-78
2023/07/14 13:41:08;;;;;;;4.22;2.08;;;;;;;;;;4992607;28;20069;-77
2023/07/14 13:43:34;;;;;;;2.60;1.90;;;;;;;;;;4994979;28;20018;-78
2023/07/14 13:46:12;;;;;;;3.95;2.30;;;;;;;;;;4993970;28;20033;-78
2023/07/14 13:48:39;;;;;;;2.20;1.60;;;;;;;;;;4991019;28;20026;-78
2023/07/14 13:51:16;;;;;;;2.75;2.20;;;;;;;;;;4995155;28;20029;-77
2023/07/14 13:53:41;;;;;;;2.85;2.05;;;;;;;;;;4997812;28;20502;-77
2023/07/14 13:56:15;;;;;;;2.40;2.03;;;;;;;;;;4994333;28;20042;-77
2023/07/14 13:58:40;;;;;;;3.65;2.33;;;;;;;;;;4996067;28;20021;-78
2023/07/14 14:01:07;;;;;;;1.83;1.45;;;;;;;;;;4988021;28;20569;-77
2023/07/14 14:03:33;;;;;;;3.58;2.33;;;;;;;;;;4996684;28;20052;-77
2023/07/14 14:05:59;;;;;;;2.33;1.95;;;;;;;;;;4996181;28;20022;-78
2023/07/14 14:08:25;;;;;;;3.78;1.98;;;;;;;;;;4994371;28;20034;-77
2023/07/14 14:10:51;;;;;;;4.03;2.45;;;;;;;;;;4993963;28;20536;-77
2023/07/14 14:13:17;;;;;;;2.70;1.77;;;;;;;;;;4994734;28;20033;-77
2023/07/14 14:15:46;;;;;;;4.47;2.17;;;;;;;;;;4996810;28;20476;-76
2023/07/14 14:18:12;;;;;;;3.72;1.88;;;;;;;;;;4993827;28;20184;-77
2023/07/14 14:20:37;;;;;;;2.67;1.95;;;;;;;;;;4989307;28;20545;-77
2023/07/14 14:23:06;;;;;;;3.75;2.00;;;;;;;;;;4993278;28;20021;-77
2023/07/14 14:25:33;;;;;;;2.13;1.92;;;;;;;;;;4989656;28;20025;-76
2023/07/14 14:28:00;;;;;;;2.40;1.65;;;;;;;;;;4997109;28;20023;-77
2023/07/14 14:30:38;;;;;;;2.70;1.83;;;;;;;;;;4999107;28;20636;-77
2023/07/14 14:33:04;;;;;;;2.20;1.83;;;;;;;;;;5006608;28;20037;-77
2023/07/14 14:35:36;;;;;;;2.75;2.00;;;;;;;;;;4996021;28;20037;-76
2023/07/14 14:38:16;;;;;;;4.47;1.80;;;;;;;;;;4995417;28;20037;-77
2023/07/14 14:40:42;;;;;;;2.17;1.98;;;;;;;;;;5001430;28;20029;-76
2023/07/14 14:43:28;;;;;;;4.20;2.25;;;;;;;;;;4997625;28;20041;-76
2023/07/14 14:45:55;;;;;;;4.15;2.05;;;;;;;;;;5008600;28;20034;-77
2023/07/14 14:48:23;;;;;;;4.30;2.25;;;;;;;;;;5003846;28;20041;-77
2023/07/14 14:50:49;;;;;;;2.53;2.00;;;;;;;;;;4992640;28;20045;-77
2023/07/14 14:53:17;;;;;;;2.88;1.90;;;;;;;;;;4995080;28;20027;-77
2023/07/14 14:55:48;;;;;;;2.88;1.83;;;;;;;;;;4996126;28;20125;-76
2023/07/14 14:58:18;;;;;;;2.72;1.95;;;;;;;;;;4992007;28;20483;-77
2023/07/14 15:00:47;;;;;;;;;;;;;;;;;;4996790;28;20038;-77
2023/07/14 15:03:13;;;;;;;1.83;1.58;;;;;;;;;;4991323;28;19921;-76